You are listening to:
LTFJ Del/Gnd/Twr - Istanbul, Turkey

LTFJ 241550Z 03014KT 9999 SCT040 11/10 Q1028 RESHRA NOSIG RMK RWY24 03011KT

If stream doesn't start automatically press the play button
If stream stops then reload player then press play